Time;durP1;ratioP1;P1;durP2;ratioP2;P2;SDS_P1;SDS_P2;PMS_P1;PMS_P2;Temp;Humidity;BMP_temperature;BMP_pressure;BME280_temperature;BME280_humidity;BME280_pressure;Samples;Min_cycle;Max_cycle;Signal;HPM_P1;HPM_P2
2022/10/16 00:08:59;;;;;;;18.63;8.38;;;;;;;;;;20921693;28;20053;-60
2022/10/16 00:19:01;;;;;;;12.57;4.90;;;;;;;;;;20920568;28;20061;-61
2022/10/16 00:29:03;;;;;;;9.48;5.50;;;;;;;;;;20919360;28;20144;-65
2022/10/16 00:39:05;;;;;;;11.60;4.53;;;;;;;;;;20919725;28;20053;-62
2022/10/16 00:49:15;;;;;;;8.68;3.97;;;;;;;;;;20917758;28;20053;-62
2022/10/16 00:59:26;;;;;;;8.05;3.83;;;;;;;;;;20916899;28;20067;-59
2022/10/16 01:09:28;;;;;;;6.22;3.55;;;;;;;;;;20916216;28;20053;-65
2022/10/16 01:19:31;;;;;;;8.40;3.42;;;;;;;;;;20916554;28;20148;-61
2022/10/16 01:29:45;;;;;;;10.13;3.30;;;;;;;;;;20914313;28;20091;-59
2022/10/16 01:39:51;;;;;;;10.05;3.78;;;;;;;;;;20914505;28;20053;-58
2022/10/16 01:49:54;;;;;;;6.75;3.33;;;;;;;;;;20914084;28;20509;-63
2022/10/16 02:00:01;;;;;;;7.75;3.10;;;;;;;;;;20914432;28;20053;-65
2022/10/16 02:10:07;;;;;;;4.78;3.35;;;;;;;;;;20912170;28;20111;-59
2022/10/16 02:20:11;;;;;;;9.02;3.15;;;;;;;;;;20912547;28;20436;-62
2022/10/16 02:30:33;;;;;;;5.97;3.58;;;;;;;;;;20913078;28;20132;-60
2022/10/16 02:40:36;;;;;;;8.27;3.45;;;;;;;;;;20820448;28;20072;-63
2022/10/16 02:50:38;;;;;;;6.15;3.35;;;;;;;;;;20820186;28;20084;-65
2022/10/16 03:00:39;;;;;;;7.72;3.58;;;;;;;;;;20819767;28;20045;-63
2022/10/16 03:10:41;;;;;;;11.20;3.65;;;;;;;;;;20836343;28;20057;-62
2022/10/16 03:20:43;;;;;;;5.70;3.28;;;;;;;;;;20916672;28;20048;-62
2022/10/16 03:30:45;;;;;;;7.65;3.20;;;;;;;;;;20924080;28;20469;-59
2022/10/16 03:40:49;;;;;;;7.35;3.63;;;;;;;;;;20923336;28;20048;-59
2022/10/16 03:50:52;;;;;;;4.20;2.90;;;;;;;;;;20922364;28;20052;-63
2022/10/16 04:00:55;;;;;;;6.40;3.50;;;;;;;;;;20921923;28;20060;-60
2022/10/16 04:10:59;;;;;;;5.28;2.83;;;;;;;;;;20921957;28;20053;-65
2022/10/16 04:21:05;;;;;;;4.10;2.58;;;;;;;;;;20920178;28;20081;-65
2022/10/16 04:31:08;;;;;;;3.35;2.70;;;;;;;;;;20918994;28;20146;-64
2022/10/16 04:41:11;;;;;;;5.00;3.15;;;;;;;;;;20918242;28;20057;-65
2022/10/16 04:51:15;;;;;;;4.32;2.47;;;;;;;;;;20918462;28;20440;-61
2022/10/16 05:01:17;;;;;;;4.40;3.10;;;;;;;;;;20916026;28;20143;-64
2022/10/16 05:11:20;;;;;;;3.95;2.70;;;;;;;;;;20916387;28;20053;-64
2022/10/16 05:21:22;;;;;;;6.07;3.35;;;;;;;;;;20916157;28;20497;-62
2022/10/16 05:31:25;;;;;;;5.43;2.90;;;;;;;;;;20915098;28;20053;-63
2022/10/16 05:41:28;;;;;;;8.05;3.70;;;;;;;;;;20913539;28;20045;-61
2022/10/16 05:51:31;;;;;;;6.90;3.15;;;;;;;;;;20914223;28;20460;-61
2022/10/16 06:01:33;;;;;;;4.32;2.88;;;;;;;;;;20913974;28;20045;-63
2022/10/16 06:11:36;;;;;;;5.60;2.90;;;;;;;;;;20914579;28;20049;-61
2022/10/16 06:21:41;;;;;;;8.50;3.35;;;;;;;;;;20913874;28;20118;-61
2022/10/16 06:31:43;;;;;;;10.13;3.70;;;;;;;;;;20912986;28;20041;-60
2022/10/16 06:41:46;;;;;;;6.53;3.20;;;;;;;;;;20913021;28;20390;-62
2022/10/16 06:51:48;;;;;;;6.80;3.03;;;;;;;;;;20914748;28;20073;-63
2022/10/16 07:01:52;;;;;;;7.63;3.33;;;;;;;;;;20926512;28;20075;-63
2022/10/16 07:11:54;;;;;;;5.72;3.35;;;;;;;;;;20924373;28;20045;-63
2022/10/16 07:21:56;;;;;;;5.82;3.58;;;;;;;;;;20924694;28;20053;-64
2022/10/16 07:32:00;;;;;;;5.22;3.50;;;;;;;;;;20924429;28;20132;-65
2022/10/16 07:42:02;;;;;;;11.07;4.25;;;;;;;;;;20922501;28;20071;-60
2022/10/16 07:52:04;;;;;;;7.10;4.15;;;;;;;;;;20922355;28;20056;-62
2022/10/16 08:02:06;;;;;;;18.38;4.40;;;;;;;;;;20921807;28;20045;-60
2022/10/16 08:12:10;;;;;;;9.85;4.40;;;;;;;;;;20920622;28;20086;-60
2022/10/16 08:22:13;;;;;;;7.55;4.88;;;;;;;;;;20918271;28;20084;-64
2022/10/16 08:32:15;;;;;;;12.40;4.97;;;;;;;;;;20918685;28;20049;-60
2022/10/16 08:42:17;;;;;;;23.15;14.30;;;;;;;;;;20918254;28;20460;-59
2022/10/16 08:52:20;;;;;;;11.88;6.72;;;;;;;;;;20917556;28;20083;-66
2022/10/16 09:02:25;;;;;;;11.65;5.25;;;;;;;;;;20916278;28;20049;-58
2022/10/16 09:12:33;;;;;;;12.82;5.93;;;;;;;;;;20916186;28;20073;-59
2022/10/16 09:22:34;;;;;;;17.93;7.30;;;;;;;;;;20916367;28;20049;-59
2022/10/16 09:32:38;;;;;;;15.77;6.68;;;;;;;;;;20913736;28;20044;-60
2022/10/16 09:42:40;;;;;;;13.77;6.05;;;;;;;;;;20949035;28;20455;-60
2022/10/16 09:52:42;;;;;;;15.18;6.60;;;;;;;;;;20995715;28;20044;-63
2022/10/16 10:02:44;;;;;;;8.55;3.40;;;;;;;;;;20977570;28;20044;-60
2022/10/16 10:12:46;;;;;;;9.25;3.50;;;;;;;;;;20995113;28;20128;-66
2022/10/16 10:22:47;;;;;;;12.43;4.88;;;;;;;;;;20995970;28;20088;-60
2022/10/16 10:32:50;;;;;;;12.10;3.28;;;;;;;;;;21006726;28;20048;-59
2022/10/16 10:43:07;;;;;;;11.45;3.90;;;;;;;;;;21009790;28;20048;-61
2022/10/16 10:53:29;;;;;;;9.77;4.13;;;;;;;;;;21009459;28;20052;-60
2022/10/16 11:03:39;;;;;;;7.22;2.92;;;;;;;;;;21008565;28;20044;-59
2022/10/16 11:13:41;;;;;;;;;;;;;;;;;;21008247;28;20460;-66
2022/10/16 11:24:07;;;;;;;6.05;2.55;;;;;;;;;;21007101;28;19920;-65
2022/10/16 11:34:15;;;;;;;7.63;3.35;;;;;;;;;;21007876;28;20469;-62
2022/10/16 11:44:26;;;;;;;10.48;3.50;;;;;;;;;;21004319;28;20067;-60
2022/10/16 11:54:48;;;;;;;10.88;4.20;;;;;;;;;;21005985;28;20049;-66
2022/10/16 12:04:56;;;;;;;15.35;2.80;;;;;;;;;;21003439;28;20045;-62
2022/10/16 12:15:02;;;;;;;7.43;3.30;;;;;;;;;;21003539;28;20051;-60
2022/10/16 12:25:04;;;;;;;5.47;2.70;;;;;;;;;;21002886;28;20044;-66
2022/10/16 12:35:07;;;;;;;11.68;2.92;;;;;;;;;;21002007;28;20397;-60
2022/10/16 12:45:24;;;;;;;7.50;3.13;;;;;;;;;;21051836;28;20496;-65
2022/10/16 12:55:27;;;;;;;15.93;5.83;;;;;;;;;;21083162;28;20051;-67
2022/10/16 13:05:48;;;;;;;7.57;3.28;;;;;;;;;;21082969;28;20054;-65
2022/10/16 13:15:59;;;;;;;6.20;1.90;;;;;;;;;;21083202;28;20076;-63
2022/10/16 13:26:20;;;;;;;9.55;3.22;;;;;;;;;;21081584;28;20044;-66
2022/10/16 13:36:26;;;;;;;11.05;2.80;;;;;;;;;;21081662;28;20105;-65
2022/10/16 13:46:29;;;;;;;6.10;2.53;;;;;;;;;;21017025;28;20061;-63
2022/10/16 13:56:32;;;;;;;9.63;2.70;;;;;;;;;;20995921;28;20044;-62
2022/10/16 14:06:35;;;;;;;13.65;2.90;;;;;;;;;;20994932;28;20508;-58
2022/10/16 14:16:41;;;;;;;15.85;5.90;;;;;;;;;;20995334;28;20052;-63
2022/10/16 14:26:44;;;;;;;8.88;4.60;;;;;;;;;;20994420;28;20055;-61
2022/10/16 14:36:46;;;;;;;9.82;2.90;;;;;;;;;;20995396;28;20127;-59
2022/10/16 14:46:48;;;;;;;7.38;2.20;;;;;;;;;;20995416;28;20048;-66
2022/10/16 14:56:53;;;;;;;6.63;2.97;;;;;;;;;;20994124;28;20206;-65
2022/10/16 15:06:57;;;;;;;10.30;2.22;;;;;;;;;;20993388;28;20049;-67
2022/10/16 15:16:59;;;;;;;7.88;2.55;;;;;;;;;;21002728;28;20094;-65
2022/10/16 15:27:01;;;;;;;8.60;2.03;;;;;;;;;;21008095;28;20052;-66
2022/10/16 15:37:05;;;;;;;9.45;2.88;;;;;;;;;;21006967;28;20044;-66
2022/10/16 15:47:06;;;;;;;5.13;2.38;;;;;;;;;;21005579;28;20500;-67
2022/10/16 15:57:08;;;;;;;9.60;3.78;;;;;;;;;;21006445;28;20061;-65
2022/10/16 16:07:11;;;;;;;5.05;2.03;;;;;;;;;;21005617;28;20067;-64
2022/10/16 16:17:12;;;;;;;7.53;2.53;;;;;;;;;;21003992;28;20059;-65
2022/10/16 16:27:14;;;;;;;8.50;3.17;;;;;;;;;;21001635;28;20388;-64
2022/10/16 16:37:16;;;;;;;11.07;3.90;;;;;;;;;;21001988;28;20052;-63
2022/10/16 16:47:18;;;;;;;12.90;4.03;;;;;;;;;;21000636;28;20516;-67
2022/10/16 16:57:21;;;;;;;7.90;3.00;;;;;;;;;;21000142;28;20044;-66
2022/10/16 17:07:24;;;;;;;10.15;3.17;;;;;;;;;;20999020;28;20075;-65
2022/10/16 17:17:26;;;;;;;14.63;2.83;;;;;;;;;;20998498;28;20059;-61
2022/10/16 17:27:33;;;;;;;9.88;2.50;;;;;;;;;;20998062;28;20106;-60
2022/10/16 17:37:34;;;;;;;12.88;3.63;;;;;;;;;;20997457;28;20476;-61
2022/10/16 17:47:37;;;;;;;13.65;4.70;;;;;;;;;;21069354;28;20055;-62
2022/10/16 17:57:39;;;;;;;14.93;6.10;;;;;;;;;;21079301;28;20416;-64
2022/10/16 18:07:41;;;;;;;8.68;4.88;;;;;;;;;;21080780;28;20541;-60
2022/10/16 18:17:45;;;;;;;13.52;3.95;;;;;;;;;;21080886;28;20464;-61
2022/10/16 18:27:49;;;;;;;27.58;8.15;;;;;;;;;;21080074;28;20135;-60
2022/10/16 18:37:52;;;;;;;20.80;7.25;;;;;;;;;;21079142;28;20515;-61
2022/10/16 18:47:53;;;;;;;17.40;7.38;;;;;;;;;;21080327;28;20056;-62
2022/10/16 18:57:56;;;;;;;23.60;7.30;;;;;;;;;;21094106;28;20123;-67
2022/10/16 19:07:58;;;;;;;14.70;5.55;;;;;;;;;;21093194;28;20185;-61
2022/10/16 19:18:00;;;;;;;13.35;5.43;;;;;;;;;;21091722;28;20052;-61
2022/10/16 19:28:06;;;;;;;12.27;5.43;;;;;;;;;;21091269;28;20055;-64
2022/10/16 19:38:08;;;;;;;12.90;4.53;;;;;;;;;;21090589;28;20052;-64
2022/10/16 19:48:10;;;;;;;10.85;3.67;;;;;;;;;;21089361;28;20054;-61
2022/10/16 19:58:14;;;;;;;12.57;4.00;;;;;;;;;;21087815;28;20055;-60
2022/10/16 20:08:16;;;;;;;11.18;3.75;;;;;;;;;;21088160;28;20492;-61
2022/10/16 20:18:18;;;;;;;13.15;4.43;;;;;;;;;;21087092;28;20055;-65
2022/10/16 20:28:20;;;;;;;16.75;5.32;;;;;;;;;;21085767;28;20059;-60
2022/10/16 20:38:22;;;;;;;15.18;5.47;;;;;;;;;;21085423;28;20610;-60
2022/10/16 20:48:24;;;;;;;18.20;4.90;;;;;;;;;;21083984;28;20070;-63
2022/10/16 20:58:25;;;;;;;9.50;4.40;;;;;;;;;;21067585;28;20051;-62
2022/10/16 21:08:27;;;;;;;12.13;3.70;;;;;;;;;;21083581;28;20052;-61
2022/10/16 21:18:29;;;;;;;9.98;3.47;;;;;;;;;;21082264;28;20063;-64
2022/10/16 21:28:31;;;;;;;9.05;3.10;;;;;;;;;;21082590;28;20052;-61
2022/10/16 21:38:33;;;;;;;8.55;2.72;;;;;;;;;;21081207;28;20044;-61
2022/10/16 21:48:35;;;;;;;9.07;3.28;;;;;;;;;;21079635;28;20071;-61
2022/10/16 21:58:37;;;;;;;9.75;3.03;;;;;;;;;;21080379;28;20123;-59
2022/10/16 22:08:39;;;;;;;9.38;3.13;;;;;;;;;;21079508;28;20079;-59
2022/10/16 22:18:42;;;;;;;8.02;3.22;;;;;;;;;;21079269;28;20055;-61
2022/10/16 22:28:44;;;;;;;8.88;3.50;;;;;;;;;;21091683;28;20047;-61
2022/10/16 22:38:46;;;;;;;9.52;3.67;;;;;;;;;;21094842;28;20044;-60
2022/10/16 22:48:48;;;;;;;11.85;3.45;;;;;;;;;;21093729;28;20056;-60
2022/10/16 22:58:50;;;;;;;11.23;4.68;;;;;;;;;;21094165;28;20051;-62
2022/10/16 23:08:53;;;;;;;12.88;4.30;;;;;;;;;;21093374;28;20059;-64
2022/10/16 23:18:55;;;;;;;12.13;4.35;;;;;;;;;;21091907;28;20068;-61
2022/10/16 23:28:57;;;;;;;9.05;4.93;;;;;;;;;;21092328;28;20165;-63
2022/10/16 23:38:59;;;;;;;10.82;4.53;;;;;;;;;;21090492;28;20076;-64
2022/10/16 23:49:01;;;;;;;12.60;5.03;;;;;;;;;;21071548;28;20056;-64
2022/10/16 23:59:03;;;;;;;7.72;3.63;;;;;;;;;;21089662;28;20076;-61
